Time,TemperatureF,DewpointF,PressureIn,WindDirection,WindDirectionDegrees,WindSpeedMPH,WindSpeedGustMPH,Humidity,HourlyPrecipIn,Conditions,Clouds,dailyrainin,SolarRadiationWatts/m^2,SoftwareType,DateUTC
2013-05-13 00:21:00,41.0,25.0,-100.00,ENE,64,6.0,10.0,53,0.00,,,0.00,0.000000,,2013-05-13 06:21:00,
2013-05-13 00:32:00,41.0,25.0,-100.00,ENE,64,6.0,10.0,53,0.00,,,0.00,0.000000,,2013-05-13 06:32:00,
2013-05-13 00:42:00,41.0,25.0,-100.00,ENE,64,6.0,10.0,53,0.00,,,0.00,0.000000,,2013-05-13 06:42:00,
2013-05-13 00:52:00,41.0,25.0,-100.00,ENE,64,6.0,10.0,53,0.00,,,0.00,0.000000,,2013-05-13 06:52:00,
2013-05-13 01:22:00,39.0,26.0,-100.00,East,86,6.0,9.0,60,0.00,,,0.00,0.000000,,2013-05-13 07:22:00,
2013-05-13 01:31:00,39.0,26.0,-100.00,East,86,6.0,9.0,60,0.00,,,0.00,0.000000,,2013-05-13 07:31:00,
2013-05-13 01:42:00,39.0,26.0,-100.00,East,86,6.0,9.0,60,0.00,,,0.00,0.000000,,2013-05-13 07:42:00,
2013-05-13 01:52:00,39.0,26.0,-100.00,East,86,6.0,9.0,60,0.00,,,0.00,0.000000,,2013-05-13 07:52:00,
2013-05-13 02:21:00,38.0,27.0,-100.00,East,95,7.0,10.0,64,0.00,,,0.00,0.000000,,2013-05-13 08:21:00,
2013-05-13 02:31:00,38.0,27.0,-100.00,East,95,7.0,10.0,64,0.00,,,0.00,0.000000,,2013-05-13 08:31:00,
2013-05-13 02:42:00,38.0,27.0,-100.00,East,95,7.0,10.0,64,0.00,,,0.00,0.000000,,2013-05-13 08:42:00,
2013-05-13 02:51:00,38.0,27.0,-100.00,East,95,7.0,10.0,64,0.00,,,0.00,0.000000,,2013-05-13 08:51:00,
2013-05-13 03:21:00,39.0,27.0,-100.00,East,79,6.0,9.0,61,0.00,,,0.00,0.000000,,2013-05-13 09:21:00,
2013-05-13 03:33:00,39.0,27.0,-100.00,East,79,6.0,9.0,61,0.00,,,0.00,0.000000,,2013-05-13 09:33:00,
2013-05-13 03:42:00,39.0,27.0,-100.00,East,79,6.0,9.0,61,0.00,,,0.00,0.000000,,2013-05-13 09:42:00,
2013-05-13 03:52:00,39.0,27.0,-100.00,East,79,6.0,9.0,61,0.00,,,0.00,0.000000,,2013-05-13 09:52:00,
2013-05-13 04:22:00,39.0,26.0,-100.00,East,98,6.0,11.0,60,0.00,,,0.00,0.000000,,2013-05-13 10:22:00,
2013-05-13 04:32:00,39.0,26.0,-100.00,East,98,6.0,11.0,60,0.00,,,0.00,0.000000,,2013-05-13 10:32:00,
2013-05-13 04:42:00,39.0,26.0,-100.00,East,98,6.0,11.0,60,0.00,,,0.00,0.000000,,2013-05-13 10:42:00,
2013-05-13 04:52:00,39.0,26.0,-100.00,East,98,6.0,11.0,60,0.00,,,0.00,0.000000,,2013-05-13 10:52:00,
2013-05-13 05:21:00,38.0,27.0,-100.00,East,92,5.0,9.0,65,0.00,,,0.00,0.000000,,2013-05-13 11:21:00,
2013-05-13 05:32:00,38.0,27.0,-100.00,East,92,5.0,9.0,65,0.00,,,0.00,0.000000,,2013-05-13 11:32:00,
2013-05-13 05:42:00,38.0,27.0,-100.00,East,92,5.0,9.0,65,0.00,,,0.00,0.000000,,2013-05-13 11:42:00,
2013-05-13 05:52:00,38.0,27.0,-100.00,East,92,5.0,9.0,65,0.00,,,0.00,0.000000,,2013-05-13 11:52:00,
2013-05-13 06:21:00,37.0,27.0,-100.00,ENE,71,8.0,10.0,68,0.00,,,0.00,1.000000,,2013-05-13 12:21:00,
2013-05-13 06:32:00,37.0,27.0,-100.00,ENE,71,8.0,10.0,68,0.00,,,0.00,1.000000,,2013-05-13 12:32:00,
2013-05-13 06:42:00,37.0,27.0,-100.00,ENE,71,8.0,10.0,68,0.00,,,0.00,1.000000,,2013-05-13 12:42:00,
2013-05-13 06:51:00,37.0,27.0,-100.00,ENE,71,8.0,10.0,68,0.00,,,0.00,1.000000,,2013-05-13 12:51:00,
2013-05-13 07:21:00,39.0,27.0,-100.00,East,90,5.0,9.0,63,0.00,,,0.00,35.000000,,2013-05-13 13:21:00,
2013-05-13 07:31:00,39.0,27.0,-100.00,East,90,5.0,9.0,63,0.00,,,0.00,35.000000,,2013-05-13 13:31:00,
2013-05-13 07:42:00,39.0,27.0,-100.00,East,90,5.0,9.0,63,0.00,,,0.00,35.000000,,2013-05-13 13:42:00,
2013-05-13 07:52:00,39.0,27.0,-100.00,East,90,5.0,9.0,63,0.00,,,0.00,35.000000,,2013-05-13 13:52:00,
2013-05-13 08:22:00,43.0,30.0,-100.00,East,95,5.0,7.0,61,0.00,,,0.00,140.000000,,2013-05-13 14:22:00,
2013-05-13 08:32:00,43.0,30.0,-100.00,East,95,5.0,7.0,61,0.00,,,0.00,140.000000,,2013-05-13 14:32:00,
2013-05-13 08:41:00,43.0,30.0,-100.00,East,95,5.0,7.0,61,0.00,,,0.00,140.000000,,2013-05-13 14:41:00,
2013-05-13 08:51:00,43.0,30.0,-100.00,East,95,5.0,7.0,61,0.00,,,0.00,140.000000,,2013-05-13 14:51:00,
2013-05-13 09:21:00,50.0,31.0,-100.00,East,96,5.0,7.0,48,0.00,,,0.00,306.000000,,2013-05-13 15:21:00,
2013-05-13 09:31:00,50.0,31.0,-100.00,East,96,5.0,7.0,48,0.00,,,0.00,306.000000,,2013-05-13 15:31:00,
2013-05-13 09:42:00,50.0,31.0,-100.00,East,96,5.0,7.0,48,0.00,,,0.00,306.000000,,2013-05-13 15:42:00,
2013-05-13 09:53:00,50.0,31.0,-100.00,East,96,5.0,7.0,48,0.00,,,0.00,306.000000,,2013-05-13 15:53:00,
2013-05-13 10:21:00,57.0,30.0,-100.00,East,97,4.0,9.0,35,0.00,,,0.00,545.000000,,2013-05-13 16:21:00,
2013-05-13 10:33:00,57.0,30.0,-100.00,East,97,4.0,9.0,35,0.00,,,0.00,545.000000,,2013-05-13 16:33:00,
2013-05-13 10:42:00,57.0,30.0,-100.00,East,97,4.0,9.0,35,0.00,,,0.00,545.000000,,2013-05-13 16:42:00,
2013-05-13 10:52:00,57.0,30.0,-100.00,East,97,4.0,9.0,35,0.00,,,0.00,545.000000,,2013-05-13 16:52:00,
2013-05-13 11:21:00,61.0,29.0,-100.00,West,276,6.0,8.0,29,0.00,,,0.00,666.000000,,2013-05-13 17:21:00,
2013-05-13 11:32:00,61.0,29.0,-100.00,West,276,6.0,8.0,29,0.00,,,0.00,666.000000,,2013-05-13 17:32:00,
2013-05-13 11:42:00,61.0,29.0,-100.00,West,276,6.0,8.0,29,0.00,,,0.00,666.000000,,2013-05-13 17:42:00,
2013-05-13 11:54:00,61.0,29.0,-100.00,West,276,6.0,8.0,29,0.00,,,0.00,666.000000,,2013-05-13 17:54:00,
2013-05-13 12:23:00,64.0,29.0,-100.00,WSW,258,8.0,14.0,27,0.00,,,0.00,899.000000,,2013-05-13 18:23:00,
2013-05-13 12:32:00,64.0,29.0,-100.00,WSW,258,8.0,14.0,27,0.00,,,0.00,899.000000,,2013-05-13 18:32:00,
2013-05-13 12:42:00,64.0,29.0,-100.00,WSW,258,8.0,14.0,27,0.00,,,0.00,899.000000,,2013-05-13 18:42:00,
2013-05-13 12:51:00,64.0,29.0,-100.00,WSW,258,8.0,14.0,27,0.00,,,0.00,899.000000,,2013-05-13 18:51:00,
2013-05-13 13:21:00,66.0,25.0,-100.00,West,269,12.0,18.0,21,0.00,,,0.00,925.000000,,2013-05-13 19:21:00,
2013-05-13 13:32:00,66.0,25.0,-100.00,West,269,12.0,18.0,21,0.00,,,0.00,925.000000,,2013-05-13 19:32:00,
2013-05-13 13:44:00,66.0,25.0,-100.00,West,269,12.0,18.0,21,0.00,,,0.00,925.000000,,2013-05-13 19:44:00,
2013-05-13 13:53:00,66.0,25.0,-100.00,West,269,12.0,18.0,21,0.00,,,0.00,925.000000,,2013-05-13 19:53:00,
2013-05-13 14:23:00,68.0,24.0,-100.00,WSW,250,9.0,19.0,19,0.00,,,0.00,1042.000000,,2013-05-13 20:23:00,
2013-05-13 14:33:00,68.0,24.0,-100.00,WSW,250,9.0,19.0,19,0.00,,,0.00,1042.000000,,2013-05-13 20:33:00,
2013-05-13 14:44:00,68.0,24.0,-100.00,WSW,250,9.0,19.0,19,0.00,,,0.00,1042.000000,,2013-05-13 20:44:00,
2013-05-13 14:53:00,68.0,24.0,-100.00,WSW,250,9.0,19.0,19,0.00,,,0.00,1042.000000,,2013-05-13 20:53:00,
2013-05-13 15:23:00,68.0,24.0,-100.00,West,260,6.0,21.0,19,0.00,,,0.00,1008.000000,,2013-05-13 21:23:00,
2013-05-13 15:33:00,68.0,24.0,-100.00,West,260,6.0,21.0,19,0.00,,,0.00,1008.000000,,2013-05-13 21:33:00,
2013-05-13 15:43:00,68.0,24.0,-100.00,West,260,6.0,21.0,19,0.00,,,0.00,1008.000000,,2013-05-13 21:43:00,
2013-05-13 15:53:00,68.0,24.0,-100.00,West,260,6.0,21.0,19,0.00,,,0.00,1008.000000,,2013-05-13 21:53:00,
2013-05-13 16:23:00,68.0,24.0,-100.00,West,260,15.0,21.0,19,0.00,,,0.00,814.000000,,2013-05-13 22:23:00,
2013-05-13 16:32:00,68.0,24.0,-100.00,West,260,15.0,21.0,19,0.00,,,0.00,814.000000,,2013-05-13 22:32:00,
2013-05-13 16:43:00,68.0,24.0,-100.00,West,260,15.0,21.0,19,0.00,,,0.00,814.000000,,2013-05-13 22:43:00,
2013-05-13 16:52:00,68.0,24.0,-100.00,West,260,15.0,21.0,19,0.00,,,0.00,814.000000,,2013-05-13 22:52:00,
2013-05-13 17:23:00,68.0,24.0,-100.00,WSW,256,13.0,24.0,19,0.00,,,0.00,714.000000,,2013-05-13 23:23:00,
2013-05-13 17:33:00,68.0,24.0,-100.00,WSW,256,13.0,24.0,19,0.00,,,0.00,714.000000,,2013-05-13 23:33:00,
2013-05-13 17:42:00,68.0,24.0,-100.00,WSW,256,13.0,24.0,19,0.00,,,0.00,714.000000,,2013-05-13 23:42:00,
2013-05-13 17:53:00,68.0,24.0,-100.00,WSW,256,13.0,24.0,19,0.00,,,0.00,714.000000,,2013-05-13 23:53:00,
2013-05-13 18:22:00,64.0,26.0,-100.00,West,264,11.0,23.0,24,0.00,,,0.00,283.000000,,2013-05-14 00:22:00,
2013-05-13 18:31:00,64.0,26.0,-100.00,West,264,11.0,23.0,24,0.00,,,0.00,283.000000,,2013-05-14 00:31:00,
2013-05-13 18:41:00,64.0,26.0,-100.00,West,264,11.0,23.0,24,0.00,,,0.00,283.000000,,2013-05-14 00:41:00,
2013-05-13 18:51:00,64.0,26.0,-100.00,West,264,11.0,23.0,24,0.00,,,0.00,283.000000,,2013-05-14 00:51:00,
2013-05-13 19:21:00,65.0,28.0,-100.00,SW,221,3.0,13.0,25,0.00,,,0.00,203.000000,,2013-05-14 01:21:00,
2013-05-13 19:32:00,65.0,28.0,-100.00,SW,221,3.0,13.0,25,0.00,,,0.00,203.000000,,2013-05-14 01:32:00,
2013-05-13 19:43:00,65.0,28.0,-100.00,SW,221,3.0,13.0,25,0.00,,,0.00,203.000000,,2013-05-14 01:43:00,
2013-05-13 19:53:00,65.0,28.0,-100.00,SW,221,3.0,13.0,25,0.00,,,0.00,203.000000,,2013-05-14 01:53:00,
2013-05-13 20:22:00,58.0,29.0,-100.00,SE,129,5.0,14.0,33,0.00,,,0.00,59.000000,,2013-05-14 02:22:00,
2013-05-13 20:32:00,58.0,29.0,-100.00,SE,129,5.0,14.0,33,0.00,,,0.00,59.000000,,2013-05-14 02:32:00,
2013-05-13 20:42:00,58.0,29.0,-100.00,SE,129,5.0,14.0,33,0.00,,,0.00,59.000000,,2013-05-14 02:42:00,
2013-05-13 20:52:00,58.0,29.0,-100.00,SE,129,5.0,14.0,33,0.00,,,0.00,59.000000,,2013-05-14 02:52:00,
2013-05-13 21:21:00,52.0,31.0,-100.00,East,83,9.0,14.0,44,0.00,,,0.00,4.000000,,2013-05-14 03:21:00,
2013-05-13 21:33:00,52.0,31.0,-100.00,East,83,9.0,14.0,44,0.00,,,0.00,4.000000,,2013-05-14 03:33:00,
2013-05-13 21:42:00,52.0,31.0,-100.00,East,83,9.0,14.0,44,0.00,,,0.00,4.000000,,2013-05-14 03:42:00,
2013-05-13 21:52:00,52.0,31.0,-100.00,East,83,9.0,14.0,44,0.00,,,0.00,4.000000,,2013-05-14 03:52:00,
2013-05-13 22:23:00,48.0,31.0,-100.00,East,94,8.0,15.0,51,0.00,,,0.00,0.000000,,2013-05-14 04:23:00,
2013-05-13 22:32:00,48.0,31.0,-100.00,East,94,8.0,15.0,51,0.00,,,0.00,0.000000,,2013-05-14 04:32:00,
2013-05-13 22:43:00,48.0,31.0,-100.00,East,94,8.0,15.0,51,0.00,,,0.00,0.000000,,2013-05-14 04:43:00,
2013-05-13 22:52:00,48.0,31.0,-100.00,East,94,8.0,15.0,51,0.00,,,0.00,0.000000,,2013-05-14 04:52:00,
2013-05-13 23:22:00,45.0,31.0,-100.00,ENE,77,8.0,12.0,57,0.00,,,0.00,0.000000,,2013-05-14 05:22:00,
2013-05-13 23:32:00,45.0,31.0,-100.00,ENE,77,8.0,12.0,57,0.00,,,0.00,0.000000,,2013-05-14 05:32:00,
2013-05-13 23:42:00,45.0,31.0,-100.00,ENE,77,8.0,12.0,57,0.00,,,0.00,0.000000,,2013-05-14 05:42:00,
2013-05-13 23:52:00,45.0,31.0,-100.00,ENE,77,8.0,12.0,57,0.00,,,0.00,0.000000,,2013-05-14 05:52:00,